sensor_id;sensor_type;location;lat;lon;timestamp;temperature;humidity
2941;DHT22;1480;51.456;6.670;2022-08-07T00:00:56;21.00;50.70
2941;DHT22;1480;51.456;6.670;2022-08-07T00:03:23;20.90;50.60
2941;DHT22;1480;51.456;6.670;2022-08-07T00:05:51;20.90;50.60
2941;DHT22;1480;51.456;6.670;2022-08-07T00:08:18;20.90;50.70
2941;DHT22;1480;51.456;6.670;2022-08-07T00:10:47;21.00;51.10
2941;DHT22;1480;51.456;6.670;2022-08-07T00:13:19;21.10;51.10
2941;DHT22;1480;51.456;6.670;2022-08-07T00:15:47;21.00;50.80
2941;DHT22;1480;51.456;6.670;2022-08-07T00:18:16;21.00;50.80
2941;DHT22;1480;51.456;6.670;2022-08-07T00:20:43;21.10;51.10
2941;DHT22;1480;51.456;6.670;2022-08-07T00:23:10;21.00;51.20
2941;DHT22;1480;51.456;6.670;2022-08-07T00:25:37;21.00;51.20
2941;DHT22;1480;51.456;6.670;2022-08-07T00:28:04;20.90;51.30
2941;DHT22;1480;51.456;6.670;2022-08-07T00:30:31;20.90;52.50
2941;DHT22;1480;51.456;6.670;2022-08-07T00:32:59;20.90;52.40
2941;DHT22;1480;51.456;6.670;2022-08-07T00:35:28;20.80;52.10
2941;DHT22;1480;51.456;6.670;2022-08-07T00:37:55;20.80;52.70
2941;DHT22;1480;51.456;6.670;2022-08-07T00:40:22;20.90;53.00
2941;DHT22;1480;51.456;6.670;2022-08-07T00:42:49;20.80;53.10
2941;DHT22;1480;51.456;6.670;2022-08-07T00:45:16;20.70;53.60
2941;DHT22;1480;51.456;6.670;2022-08-07T00:47:45;20.60;53.40
2941;DHT22;1480;51.456;6.670;2022-08-07T00:50:13;20.70;54.00
2941;DHT22;1480;51.456;6.670;2022-08-07T00:52:41;20.70;53.80
2941;DHT22;1480;51.456;6.670;2022-08-07T00:55:09;20.60;53.20
2941;DHT22;1480;51.456;6.670;2022-08-07T00:57:36;20.70;52.90
2941;DHT22;1480;51.456;6.670;2022-08-07T01:00:05;20.60;53.40
2941;DHT22;1480;51.456;6.670;2022-08-07T01:02:33;20.60;53.40
2941;DHT22;1480;51.456;6.670;2022-08-07T01:05:03;20.50;53.30
2941;DHT22;1480;51.456;6.670;2022-08-07T01:07:32;20.50;53.90
2941;DHT22;1480;51.456;6.670;2022-08-07T01:10:01;20.40;54.20
2941;DHT22;1480;51.456;6.670;2022-08-07T01:12:28;20.40;54.20
2941;DHT22;1480;51.456;6.670;2022-08-07T01:14:56;20.40;54.00
2941;DHT22;1480;51.456;6.670;2022-08-07T01:17:25;20.30;54.80
2941;DHT22;1480;51.456;6.670;2022-08-07T01:19:55;20.30;54.60
2941;DHT22;1480;51.456;6.670;2022-08-07T01:22:25;20.30;54.30
2941;DHT22;1480;51.456;6.670;2022-08-07T01:24:52;20.20;54.40
2941;DHT22;1480;51.456;6.670;2022-08-07T01:27:20;20.20;54.60
2941;DHT22;1480;51.456;6.670;2022-08-07T01:29:47;20.20;55.20
2941;DHT22;1480;51.456;6.670;2022-08-07T01:32:15;20.30;55.50
2941;DHT22;1480;51.456;6.670;2022-08-07T01:34:45;20.10;54.80
2941;DHT22;1480;51.456;6.670;2022-08-07T01:37:12;20.20;55.10
2941;DHT22;1480;51.456;6.670;2022-08-07T01:39:44;20.10;55.30
2941;DHT22;1480;51.456;6.670;2022-08-07T01:42:20;20.20;54.80
2941;DHT22;1480;51.456;6.670;2022-08-07T01:44:47;20.10;55.40
2941;DHT22;1480;51.456;6.670;2022-08-07T01:47:15;20.00;55.30
2941;DHT22;1480;51.456;6.670;2022-08-07T01:49:42;20.10;55.30
2941;DHT22;1480;51.456;6.670;2022-08-07T01:52:10;20.00;55.90
2941;DHT22;1480;51.456;6.670;2022-08-07T01:54:39;20.00;55.00
2941;DHT22;1480;51.456;6.670;2022-08-07T01:57:22;20.00;55.60
2941;DHT22;1480;51.456;6.670;2022-08-07T01:59:53;20.00;55.50
2941;DHT22;1480;51.456;6.670;2022-08-07T02:02:26;19.90;56.30
2941;DHT22;1480;51.456;6.670;2022-08-07T02:04:58;19.90;55.90
2941;DHT22;1480;51.456;6.670;2022-08-07T02:07:32;19.80;56.50
2941;DHT22;1480;51.456;6.670;2022-08-07T02:10:02;19.70;56.90
2941;DHT22;1480;51.456;6.670;2022-08-07T02:12:40;19.60;57.70
2941;DHT22;1480;51.456;6.670;2022-08-07T02:15:11;19.50;58.10
2941;DHT22;1480;51.456;6.670;2022-08-07T02:17:43;19.60;58.10
2941;DHT22;1480;51.456;6.670;2022-08-07T02:20:13;19.50;58.50
2941;DHT22;1480;51.456;6.670;2022-08-07T02:22:41;19.50;58.40
2941;DHT22;1480;51.456;6.670;2022-08-07T02:25:11;19.50;58.70
2941;DHT22;1480;51.456;6.670;2022-08-07T02:27:41;19.50;59.20
2941;DHT22;1480;51.456;6.670;2022-08-07T02:30:09;19.40;59.10
2941;DHT22;1480;51.456;6.670;2022-08-07T02:32:37;19.60;58.60
2941;DHT22;1480;51.456;6.670;2022-08-07T02:35:05;19.40;58.90
2941;DHT22;1480;51.456;6.670;2022-08-07T02:37:36;19.40;59.00
2941;DHT22;1480;51.456;6.670;2022-08-07T02:40:08;19.40;58.80
2941;DHT22;1480;51.456;6.670;2022-08-07T02:42:36;19.50;59.00
2941;DHT22;1480;51.456;6.670;2022-08-07T02:45:08;19.50;58.80
2941;DHT22;1480;51.456;6.670;2022-08-07T02:47:37;19.60;58.60
2941;DHT22;1480;51.456;6.670;2022-08-07T02:50:13;19.60;58.30
2941;DHT22;1480;51.456;6.670;2022-08-07T02:52:42;19.60;57.80
2941;DHT22;1480;51.456;6.670;2022-08-07T02:55:20;19.60;57.90
2941;DHT22;1480;51.456;6.670;2022-08-07T02:57:48;19.50;58.30
2941;DHT22;1480;51.456;6.670;2022-08-07T03:00:18;19.50;58.60
2941;DHT22;1480;51.456;6.670;2022-08-07T03:02:47;19.40;58.50
2941;DHT22;1480;51.456;6.670;2022-08-07T03:05:18;19.40;58.40
2941;DHT22;1480;51.456;6.670;2022-08-07T03:07:46;19.40;58.70
2941;DHT22;1480;51.456;6.670;2022-08-07T03:10:16;19.40;59.00
2941;DHT22;1480;51.456;6.670;2022-08-07T03:12:44;19.40;59.00
2941;DHT22;1480;51.456;6.670;2022-08-07T03:15:16;19.40;58.60
2941;DHT22;1480;51.456;6.670;2022-08-07T03:17:45;19.30;58.80
2941;DHT22;1480;51.456;6.670;2022-08-07T03:20:12;19.30;58.80
2941;DHT22;1480;51.456;6.670;2022-08-07T03:22:41;19.20;59.20
2941;DHT22;1480;51.456;6.670;2022-08-07T03:25:09;19.20;59.40
2941;DHT22;1480;51.456;6.670;2022-08-07T03:27:41;19.20;60.00
2941;DHT22;1480;51.456;6.670;2022-08-07T03:30:12;19.20;60.10
2941;DHT22;1480;51.456;6.670;2022-08-07T03:32:45;19.20;59.70
2941;DHT22;1480;51.456;6.670;2022-08-07T03:35:17;19.30;59.20
2941;DHT22;1480;51.456;6.670;2022-08-07T03:37:56;19.20;59.20
2941;DHT22;1480;51.456;6.670;2022-08-07T03:40:29;19.10;59.20
2941;DHT22;1480;51.456;6.670;2022-08-07T03:42:57;19.00;59.60
2941;DHT22;1480;51.456;6.670;2022-08-07T03:45:26;19.00;60.10
2941;DHT22;1480;51.456;6.670;2022-08-07T03:47:59;19.10;60.00
2941;DHT22;1480;51.456;6.670;2022-08-07T03:50:27;19.10;60.00
2941;DHT22;1480;51.456;6.670;2022-08-07T03:52:57;19.00;60.20
2941;DHT22;1480;51.456;6.670;2022-08-07T03:55:27;19.00;61.00
2941;DHT22;1480;51.456;6.670;2022-08-07T03:57:55;18.90;61.00
2941;DHT22;1480;51.456;6.670;2022-08-07T04:00:25;18.90;60.90
2941;DHT22;1480;51.456;6.670;2022-08-07T04:02:55;18.80;61.10
2941;DHT22;1480;51.456;6.670;2022-08-07T04:05:29;18.90;60.90
2941;DHT22;1480;51.456;6.670;2022-08-07T04:07:57;18.80;60.80
2941;DHT22;1480;51.456;6.670;2022-08-07T04:10:25;18.70;61.40
2941;DHT22;1480;51.456;6.670;2022-08-07T04:12:53;18.80;60.90
2941;DHT22;1480;51.456;6.670;2022-08-07T04:15:21;18.80;60.80
2941;DHT22;1480;51.456;6.670;2022-08-07T04:17:48;18.90;61.00
2941;DHT22;1480;51.456;6.670;2022-08-07T04:20:16;19.00;60.40
2941;DHT22;1480;51.456;6.670;2022-08-07T04:22:45;18.90;60.30
2941;DHT22;1480;51.456;6.670;2022-08-07T04:25:14;18.90;60.10
2941;DHT22;1480;51.456;6.670;2022-08-07T04:27:44;18.90;60.40
2941;DHT22;1480;51.456;6.670;2022-08-07T04:30:13;18.90;60.40
2941;DHT22;1480;51.456;6.670;2022-08-07T04:32:48;18.90;60.50
2941;DHT22;1480;51.456;6.670;2022-08-07T04:35:17;18.90;60.90
2941;DHT22;1480;51.456;6.670;2022-08-07T04:37:47;18.80;60.60
2941;DHT22;1480;51.456;6.670;2022-08-07T04:40:14;18.80;60.70
2941;DHT22;1480;51.456;6.670;2022-08-07T04:42:43;18.80;61.10
2941;DHT22;1480;51.456;6.670;2022-08-07T04:45:10;18.80;61.00
2941;DHT22;1480;51.456;6.670;2022-08-07T04:47:44;18.90;60.60
2941;DHT22;1480;51.456;6.670;2022-08-07T04:50:30;18.90;60.60
2941;DHT22;1480;51.456;6.670;2022-08-07T04:53:25;19.00;61.00
2941;DHT22;1480;51.456;6.670;2022-08-07T04:55:58;19.10;60.50
2941;DHT22;1480;51.456;6.670;2022-08-07T04:58:33;19.10;60.40
2941;DHT22;1480;51.456;6.670;2022-08-07T05:01:06;19.10;60.20
2941;DHT22;1480;51.456;6.670;2022-08-07T05:03:44;19.00;60.60
2941;DHT22;1480;51.456;6.670;2022-08-07T05:06:16;19.20;60.90
2941;DHT22;1480;51.456;6.670;2022-08-07T05:08:49;19.10;60.50
2941;DHT22;1480;51.456;6.670;2022-08-07T05:11:22;19.20;59.80
2941;DHT22;1480;51.456;6.670;2022-08-07T05:13:54;19.20;60.10
2941;DHT22;1480;51.456;6.670;2022-08-07T05:16:23;19.30;59.80
2941;DHT22;1480;51.456;6.670;2022-08-07T05:18:54;19.30;60.20
2941;DHT22;1480;51.456;6.670;2022-08-07T05:21:25;19.30;60.40
2941;DHT22;1480;51.456;6.670;2022-08-07T05:23:57;19.30;60.90
2941;DHT22;1480;51.456;6.670;2022-08-07T05:26:27;19.20;61.30
2941;DHT22;1480;51.456;6.670;2022-08-07T05:29:02;19.20;61.20
2941;DHT22;1480;51.456;6.670;2022-08-07T05:31:34;19.40;61.30
2941;DHT22;1480;51.456;6.670;2022-08-07T05:34:07;19.40;60.80
2941;DHT22;1480;51.456;6.670;2022-08-07T05:36:37;19.50;60.70
2941;DHT22;1480;51.456;6.670;2022-08-07T05:39:09;19.60;60.60
2941;DHT22;1480;51.456;6.670;2022-08-07T05:41:38;19.70;60.70
2941;DHT22;1480;51.456;6.670;2022-08-07T05:44:09;19.40;61.10
2941;DHT22;1480;51.456;6.670;2022-08-07T05:46:41;19.50;61.00
2941;DHT22;1480;51.456;6.670;2022-08-07T05:49:10;19.60;61.10
2941;DHT22;1480;51.456;6.670;2022-08-07T05:51:37;19.70;61.20
2941;DHT22;1480;51.456;6.670;2022-08-07T05:54:05;19.70;61.60
2941;DHT22;1480;51.456;6.670;2022-08-07T05:56:35;19.80;61.30
2941;DHT22;1480;51.456;6.670;2022-08-07T05:59:04;19.90;61.10
2941;DHT22;1480;51.456;6.670;2022-08-07T06:01:35;20.10;60.90
2941;DHT22;1480;51.456;6.670;2022-08-07T06:04:07;20.30;60.00
2941;DHT22;1480;51.456;6.670;2022-08-07T06:06:38;20.30;60.20
2941;DHT22;1480;51.456;6.670;2022-08-07T06:09:08;20.40;60.60
2941;DHT22;1480;51.456;6.670;2022-08-07T06:11:40;20.50;60.10
2941;DHT22;1480;51.456;6.670;2022-08-07T06:14:08;20.80;60.50
2941;DHT22;1480;51.456;6.670;2022-08-07T06:16:37;20.90;57.40
2941;DHT22;1480;51.456;6.670;2022-08-07T06:19:06;21.10;58.30
2941;DHT22;1480;51.456;6.670;2022-08-07T06:21:35;21.20;57.30
2941;DHT22;1480;51.456;6.670;2022-08-07T06:24:03;21.50;55.90
2941;DHT22;1480;51.456;6.670;2022-08-07T06:26:30;21.60;54.70
2941;DHT22;1480;51.456;6.670;2022-08-07T06:28:59;21.70;55.50
2941;DHT22;1480;51.456;6.670;2022-08-07T06:31:31;21.70;54.60
2941;DHT22;1480;51.456;6.670;2022-08-07T06:33:58;21.90;52.90
2941;DHT22;1480;51.456;6.670;2022-08-07T06:36:25;21.90;53.30
2941;DHT22;1480;51.456;6.670;2022-08-07T06:38:55;21.90;53.70
2941;DHT22;1480;51.456;6.670;2022-08-07T06:41:27;21.90;54.10
2941;DHT22;1480;51.456;6.670;2022-08-07T06:43:55;22.00;53.50
2941;DHT22;1480;51.456;6.670;2022-08-07T06:46:25;22.20;53.20
2941;DHT22;1480;51.456;6.670;2022-08-07T06:48:53;22.30;53.50
2941;DHT22;1480;51.456;6.670;2022-08-07T06:51:27;22.50;50.90
2941;DHT22;1480;51.456;6.670;2022-08-07T06:53:57;22.40;52.20
2941;DHT22;1480;51.456;6.670;2022-08-07T06:56:29;22.50;51.30
2941;DHT22;1480;51.456;6.670;2022-08-07T06:59:15;22.50;50.90
2941;DHT22;1480;51.456;6.670;2022-08-07T07:01:49;22.60;49.40
2941;DHT22;1480;51.456;6.670;2022-08-07T07:04:17;22.70;50.00
2941;DHT22;1480;51.456;6.670;2022-08-07T07:06:44;22.80;49.80
2941;DHT22;1480;51.456;6.670;2022-08-07T07:09:18;22.90;49.00
2941;DHT22;1480;51.456;6.670;2022-08-07T07:11:54;23.10;46.80
2941;DHT22;1480;51.456;6.670;2022-08-07T07:14:23;23.20;47.50
2941;DHT22;1480;51.456;6.670;2022-08-07T07:16:55;23.30;49.20
2941;DHT22;1480;51.456;6.670;2022-08-07T07:19:34;23.40;45.50
2941;DHT22;1480;51.456;6.670;2022-08-07T07:22:03;23.50;45.80
2941;DHT22;1480;51.456;6.670;2022-08-07T07:24:30;23.60;48.10
2941;DHT22;1480;51.456;6.670;2022-08-07T07:26:59;23.70;45.50
2941;DHT22;1480;51.456;6.670;2022-08-07T07:29:29;23.80;45.00
2941;DHT22;1480;51.456;6.670;2022-08-07T07:32:02;23.70;44.20
2941;DHT22;1480;51.456;6.670;2022-08-07T07:34:31;23.90;45.20
2941;DHT22;1480;51.456;6.670;2022-08-07T07:37:02;23.90;42.20
2941;DHT22;1480;51.456;6.670;2022-08-07T07:39:30;24.10;42.30
2941;DHT22;1480;51.456;6.670;2022-08-07T07:41:59;24.10;42.50
2941;DHT22;1480;51.456;6.670;2022-08-07T07:44:28;24.20;42.10
2941;DHT22;1480;51.456;6.670;2022-08-07T07:46:59;24.30;43.30
2941;DHT22;1480;51.456;6.670;2022-08-07T07:49:29;24.50;42.90
2941;DHT22;1480;51.456;6.670;2022-08-07T07:51:57;24.60;42.50
2941;DHT22;1480;51.456;6.670;2022-08-07T07:54:26;24.70;43.80
2941;DHT22;1480;51.456;6.670;2022-08-07T07:56:54;24.70;41.10
2941;DHT22;1480;51.456;6.670;2022-08-07T07:59:23;24.80;41.80
2941;DHT22;1480;51.456;6.670;2022-08-07T08:01:51;24.80;40.50
2941;DHT22;1480;51.456;6.670;2022-08-07T08:04:21;24.90;39.20
2941;DHT22;1480;51.456;6.670;2022-08-07T08:06:49;24.80;39.10
2941;DHT22;1480;51.456;6.670;2022-08-07T08:09:20;24.90;39.70
2941;DHT22;1480;51.456;6.670;2022-08-07T08:11:48;25.00;39.50
2941;DHT22;1480;51.456;6.670;2022-08-07T08:14:16;24.90;37.20
2941;DHT22;1480;51.456;6.670;2022-08-07T08:16:44;25.10;38.30
2941;DHT22;1480;51.456;6.670;2022-08-07T08:19:15;25.10;37.60
2941;DHT22;1480;51.456;6.670;2022-08-07T08:21:47;25.20;37.10
2941;DHT22;1480;51.456;6.670;2022-08-07T08:24:37;25.20;36.90
2941;DHT22;1480;51.456;6.670;2022-08-07T08:27:24;25.10;35.30
2941;DHT22;1480;51.456;6.670;2022-08-07T08:29:55;25.20;37.10
2941;DHT22;1480;51.456;6.670;2022-08-07T08:32:24;25.20;35.50
2941;DHT22;1480;51.456;6.670;2022-08-07T08:34:53;25.20;35.00
2941;DHT22;1480;51.456;6.670;2022-08-07T08:37:22;25.30;34.40
2941;DHT22;1480;51.456;6.670;2022-08-07T08:39:53;25.50;34.60
2941;DHT22;1480;51.456;6.670;2022-08-07T08:42:25;25.60;34.20
2941;DHT22;1480;51.456;6.670;2022-08-07T08:44:59;25.60;34.10
2941;DHT22;1480;51.456;6.670;2022-08-07T08:47:42;25.60;35.40
2941;DHT22;1480;51.456;6.670;2022-08-07T08:50:16;25.80;35.70
2941;DHT22;1480;51.456;6.670;2022-08-07T08:52:52;25.90;34.60
2941;DHT22;1480;51.456;6.670;2022-08-07T08:55:26;26.00;33.40
2941;DHT22;1480;51.456;6.670;2022-08-07T08:58:00;26.10;33.40
2941;DHT22;1480;51.456;6.670;2022-08-07T09:00:34;26.10;33.30
2941;DHT22;1480;51.456;6.670;2022-08-07T09:03:09;26.10;33.30
2941;DHT22;1480;51.456;6.670;2022-08-07T09:05:46;26.30;32.40
2941;DHT22;1480;51.456;6.670;2022-08-07T09:08:24;26.30;32.60
2941;DHT22;1480;51.456;6.670;2022-08-07T09:11:05;26.40;33.30
2941;DHT22;1480;51.456;6.670;2022-08-07T09:13:39;26.30;33.10
2941;DHT22;1480;51.456;6.670;2022-08-07T09:16:13;26.40;31.80
2941;DHT22;1480;51.456;6.670;2022-08-07T09:19:01;26.40;31.80
2941;DHT22;1480;51.456;6.670;2022-08-07T09:21:35;26.60;31.20
2941;DHT22;1480;51.456;6.670;2022-08-07T09:24:15;26.50;31.20
2941;DHT22;1480;51.456;6.670;2022-08-07T09:26:49;26.60;32.20
2941;DHT22;1480;51.456;6.670;2022-08-07T09:29:23;26.30;32.20
2941;DHT22;1480;51.456;6.670;2022-08-07T09:31:58;26.30;32.20
2941;DHT22;1480;51.456;6.670;2022-08-07T09:34:32;26.20;31.40
2941;DHT22;1480;51.456;6.670;2022-08-07T09:37:04;26.20;30.90
2941;DHT22;1480;51.456;6.670;2022-08-07T09:39:45;26.30;31.40
2941;DHT22;1480;51.456;6.670;2022-08-07T09:42:24;26.30;31.60
2941;DHT22;1480;51.456;6.670;2022-08-07T09:45:01;26.30;31.70
2941;DHT22;1480;51.456;6.670;2022-08-07T09:47:45;26.60;31.30
2941;DHT22;1480;51.456;6.670;2022-08-07T09:50:21;26.70;30.90
2941;DHT22;1480;51.456;6.670;2022-08-07T09:52:58;26.70;29.60
2941;DHT22;1480;51.456;6.670;2022-08-07T09:55:31;26.80;30.00
2941;DHT22;1480;51.456;6.670;2022-08-07T09:58:28;26.60;29.10
2941;DHT22;1480;51.456;6.670;2022-08-07T10:01:16;26.50;30.00
2941;DHT22;1480;51.456;6.670;2022-08-07T10:04:02;26.60;29.60
2941;DHT22;1480;51.456;6.670;2022-08-07T10:09:42;26.90;30.60
2941;DHT22;1480;51.456;6.670;2022-08-07T10:12:21;26.90;29.70
2941;DHT22;1480;51.456;6.670;2022-08-07T10:15:07;26.80;29.90
2941;DHT22;1480;51.456;6.670;2022-08-07T10:18:07;26.80;29.10
2941;DHT22;1480;51.456;6.670;2022-08-07T10:20:53;26.70;30.10
2941;DHT22;1480;51.456;6.670;2022-08-07T10:23:41;26.70;29.30
2941;DHT22;1480;51.456;6.670;2022-08-07T10:26:27;26.70;29.70
2941;DHT22;1480;51.456;6.670;2022-08-07T10:29:06;26.70;30.00
2941;DHT22;1480;51.456;6.670;2022-08-07T10:31:48;26.90;29.50
2941;DHT22;1480;51.456;6.670;2022-08-07T10:34:32;26.80;29.60
2941;DHT22;1480;51.456;6.670;2022-08-07T10:37:28;26.70;29.10
2941;DHT22;1480;51.456;6.670;2022-08-07T10:40:04;26.60;28.50
2941;DHT22;1480;51.456;6.670;2022-08-07T10:42:39;26.40;29.70
2941;DHT22;1480;51.456;6.670;2022-08-07T10:45:20;26.40;31.50
2941;DHT22;1480;51.456;6.670;2022-08-07T10:47:58;26.70;29.70
2941;DHT22;1480;51.456;6.670;2022-08-07T10:50:34;26.70;28.60
2941;DHT22;1480;51.456;6.670;2022-08-07T10:53:10;26.80;27.90
2941;DHT22;1480;51.456;6.670;2022-08-07T10:55:46;26.60;29.50
2941;DHT22;1480;51.456;6.670;2022-08-07T10:58:23;26.60;28.40
2941;DHT22;1480;51.456;6.670;2022-08-07T11:01:07;26.60;29.30
2941;DHT22;1480;51.456;6.670;2022-08-07T11:03:44;26.70;28.80
2941;DHT22;1480;51.456;6.670;2022-08-07T11:06:19;26.80;29.60
2941;DHT22;1480;51.456;6.670;2022-08-07T11:08:53;27.00;29.00
2941;DHT22;1480;51.456;6.670;2022-08-07T11:11:28;27.00;28.60
2941;DHT22;1480;51.456;6.670;2022-08-07T11:14:02;26.90;29.20
2941;DHT22;1480;51.456;6.670;2022-08-07T11:16:34;27.00;29.70
2941;DHT22;1480;51.456;6.670;2022-08-07T11:19:05;27.10;27.90
2941;DHT22;1480;51.456;6.670;2022-08-07T11:21:44;27.10;27.80
2941;DHT22;1480;51.456;6.670;2022-08-07T11:24:19;27.00;27.40
2941;DHT22;1480;51.456;6.670;2022-08-07T11:26:52;26.90;28.00
2941;DHT22;1480;51.456;6.670;2022-08-07T11:29:28;26.90;27.80
2941;DHT22;1480;51.456;6.670;2022-08-07T11:32:05;27.00;27.90
2941;DHT22;1480;51.456;6.670;2022-08-07T11:34:38;27.10;27.40
2941;DHT22;1480;51.456;6.670;2022-08-07T11:37:12;27.20;28.10
2941;DHT22;1480;51.456;6.670;2022-08-07T11:39:59;27.00;27.00
2941;DHT22;1480;51.456;6.670;2022-08-07T11:42:38;27.10;28.40
2941;DHT22;1480;51.456;6.670;2022-08-07T11:45:17;27.20;28.40
2941;DHT22;1480;51.456;6.670;2022-08-07T11:48:12;27.20;27.60
2941;DHT22;1480;51.456;6.670;2022-08-07T11:50:48;27.30;27.30
2941;DHT22;1480;51.456;6.670;2022-08-07T11:53:30;27.30;26.90
2941;DHT22;1480;51.456;6.670;2022-08-07T11:56:09;27.30;27.30
2941;DHT22;1480;51.456;6.670;2022-08-07T11:58:52;27.20;28.10
2941;DHT22;1480;51.456;6.670;2022-08-07T12:01:34;27.20;27.40
2941;DHT22;1480;51.456;6.670;2022-08-07T12:04:22;27.20;28.40
2941;DHT22;1480;51.456;6.670;2022-08-07T12:06:58;27.10;27.50
2941;DHT22;1480;51.456;6.670;2022-08-07T12:09:33;27.20;28.10
2941;DHT22;1480;51.456;6.670;2022-08-07T12:12:06;27.50;27.40
2941;DHT22;1480;51.456;6.670;2022-08-07T12:14:41;27.60;27.00
2941;DHT22;1480;51.456;6.670;2022-08-07T12:17:11;27.50;26.20
2941;DHT22;1480;51.456;6.670;2022-08-07T12:19:45;27.50;26.50
2941;DHT22;1480;51.456;6.670;2022-08-07T12:22:21;27.40;27.40
2941;DHT22;1480;51.456;6.670;2022-08-07T12:24:55;27.50;26.60
2941;DHT22;1480;51.456;6.670;2022-08-07T12:27:47;27.60;26.90
2941;DHT22;1480;51.456;6.670;2022-08-07T12:30:15;27.70;27.90
2941;DHT22;1480;51.456;6.670;2022-08-07T12:32:49;27.70;28.30
2941;DHT22;1480;51.456;6.670;2022-08-07T12:35:19;27.70;27.70
2941;DHT22;1480;51.456;6.670;2022-08-07T12:37:48;27.70;26.00
2941;DHT22;1480;51.456;6.670;2022-08-07T12:40:19;27.70;27.00
2941;DHT22;1480;51.456;6.670;2022-08-07T12:42:50;27.70;26.40
2941;DHT22;1480;51.456;6.670;2022-08-07T12:45:21;27.80;26.70
2941;DHT22;1480;51.456;6.670;2022-08-07T12:47:52;27.80;27.70
2941;DHT22;1480;51.456;6.670;2022-08-07T12:50:28;27.80;26.40
2941;DHT22;1480;51.456;6.670;2022-08-07T12:53:00;27.50;26.30
2941;DHT22;1480;51.456;6.670;2022-08-07T12:55:34;27.50;26.70
2941;DHT22;1480;51.456;6.670;2022-08-07T12:58:04;27.60;26.60
2941;DHT22;1480;51.456;6.670;2022-08-07T13:00:39;27.70;27.40
2941;DHT22;1480;51.456;6.670;2022-08-07T13:03:25;27.80;27.30
2941;DHT22;1480;51.456;6.670;2022-08-07T13:06:05;27.70;27.20
2941;DHT22;1480;51.456;6.670;2022-08-07T13:08:42;27.70;26.80
2941;DHT22;1480;51.456;6.670;2022-08-07T13:11:33;27.70;27.30
2941;DHT22;1480;51.456;6.670;2022-08-07T13:14:11;27.50;27.00
2941;DHT22;1480;51.456;6.670;2022-08-07T13:16:47;27.70;26.90
2941;DHT22;1480;51.456;6.670;2022-08-07T13:19:22;27.70;26.60
2941;DHT22;1480;51.456;6.670;2022-08-07T13:21:57;27.70;26.30
2941;DHT22;1480;51.456;6.670;2022-08-07T13:24:38;27.70;26.00
2941;DHT22;1480;51.456;6.670;2022-08-07T13:27:10;27.70;25.90
2941;DHT22;1480;51.456;6.670;2022-08-07T13:29:47;27.70;27.70
2941;DHT22;1480;51.456;6.670;2022-08-07T13:32:22;27.80;28.00
2941;DHT22;1480;51.456;6.670;2022-08-07T13:34:56;27.70;27.90
2941;DHT22;1480;51.456;6.670;2022-08-07T13:37:30;27.70;28.00
2941;DHT22;1480;51.456;6.670;2022-08-07T13:40:13;27.70;27.80
2941;DHT22;1480;51.456;6.670;2022-08-07T13:42:41;27.80;27.10
2941;DHT22;1480;51.456;6.670;2022-08-07T13:45:12;27.80;27.90
2941;DHT22;1480;51.456;6.670;2022-08-07T13:47:39;27.90;27.20
2941;DHT22;1480;51.456;6.670;2022-08-07T13:50:09;27.90;27.90
2941;DHT22;1480;51.456;6.670;2022-08-07T13:52:41;28.00;26.80
2941;DHT22;1480;51.456;6.670;2022-08-07T13:55:11;27.80;27.60
2941;DHT22;1480;51.456;6.670;2022-08-07T13:57:41;27.70;27.70
2941;DHT22;1480;51.456;6.670;2022-08-07T14:00:11;27.80;27.60
2941;DHT22;1480;51.456;6.670;2022-08-07T14:02:42;27.80;27.10
2941;DHT22;1480;51.456;6.670;2022-08-07T14:05:13;27.70;27.60
2941;DHT22;1480;51.456;6.670;2022-08-07T14:07:42;27.70;28.50
2941;DHT22;1480;51.456;6.670;2022-08-07T14:10:11;27.80;27.70
2941;DHT22;1480;51.456;6.670;2022-08-07T14:12:43;27.90;28.20
2941;DHT22;1480;51.456;6.670;2022-08-07T14:15:20;28.00;27.30
2941;DHT22;1480;51.456;6.670;2022-08-07T14:17:55;27.80;27.50
2941;DHT22;1480;51.456;6.670;2022-08-07T14:20:25;27.70;27.50
2941;DHT22;1480;51.456;6.670;2022-08-07T14:23:02;27.80;27.50
2941;DHT22;1480;51.456;6.670;2022-08-07T14:25:30;27.70;28.20
2941;DHT22;1480;51.456;6.670;2022-08-07T14:28:03;27.80;28.60
2941;DHT22;1480;51.456;6.670;2022-08-07T14:30:34;27.90;28.00
2941;DHT22;1480;51.456;6.670;2022-08-07T14:33:04;27.80;27.90
2941;DHT22;1480;51.456;6.670;2022-08-07T14:35:35;27.80;28.00
2941;DHT22;1480;51.456;6.670;2022-08-07T14:38:02;27.90;27.70
2941;DHT22;1480;51.456;6.670;2022-08-07T14:40:31;27.90;28.10
2941;DHT22;1480;51.456;6.670;2022-08-07T14:43:04;27.80;27.90
2941;DHT22;1480;51.456;6.670;2022-08-07T14:45:40;27.80;28.40
2941;DHT22;1480;51.456;6.670;2022-08-07T14:48:08;27.90;28.30
2941;DHT22;1480;51.456;6.670;2022-08-07T14:50:41;27.90;28.10
2941;DHT22;1480;51.456;6.670;2022-08-07T14:53:09;27.70;27.30
2941;DHT22;1480;51.456;6.670;2022-08-07T14:55:38;27.50;28.20
2941;DHT22;1480;51.456;6.670;2022-08-07T14:58:08;27.70;29.00
2941;DHT22;1480;51.456;6.670;2022-08-07T15:00:38;27.80;28.00
2941;DHT22;1480;51.456;6.670;2022-08-07T15:03:07;27.90;28.00
2941;DHT22;1480;51.456;6.670;2022-08-07T15:05:35;28.00;26.90
2941;DHT22;1480;51.456;6.670;2022-08-07T15:08:03;27.80;28.20
2941;DHT22;1480;51.456;6.670;2022-08-07T15:10:32;27.90;28.70
2941;DHT22;1480;51.456;6.670;2022-08-07T15:13:01;27.90;27.90
2941;DHT22;1480;51.456;6.670;2022-08-07T15:15:36;27.90;28.20
2941;DHT22;1480;51.456;6.670;2022-08-07T15:18:18;28.00;27.50
2941;DHT22;1480;51.456;6.670;2022-08-07T15:20:46;28.00;27.50
2941;DHT22;1480;51.456;6.670;2022-08-07T15:23:19;28.10;27.10
2941;DHT22;1480;51.456;6.670;2022-08-07T15:25:52;28.10;27.90
2941;DHT22;1480;51.456;6.670;2022-08-07T15:28:23;28.00;26.20
2941;DHT22;1480;51.456;6.670;2022-08-07T15:30:54;28.00;26.50
2941;DHT22;1480;51.456;6.670;2022-08-07T15:33:23;27.90;26.70
2941;DHT22;1480;51.456;6.670;2022-08-07T15:35:52;27.90;27.90
2941;DHT22;1480;51.456;6.670;2022-08-07T15:38:25;27.90;27.40
2941;DHT22;1480;51.456;6.670;2022-08-07T15:40:54;27.80;27.80
2941;DHT22;1480;51.456;6.670;2022-08-07T15:43:25;27.80;27.90
2941;DHT22;1480;51.456;6.670;2022-08-07T15:45:56;27.70;27.80
2941;DHT22;1480;51.456;6.670;2022-08-07T15:48:26;27.60;27.20
2941;DHT22;1480;51.456;6.670;2022-08-07T15:50:57;27.70;27.50
2941;DHT22;1480;51.456;6.670;2022-08-07T15:53:27;27.80;27.70
2941;DHT22;1480;51.456;6.670;2022-08-07T15:55:59;27.80;27.80
2941;DHT22;1480;51.456;6.670;2022-08-07T15:58:36;27.90;28.30
2941;DHT22;1480;51.456;6.670;2022-08-07T16:01:12;28.00;27.70
2941;DHT22;1480;51.456;6.670;2022-08-07T16:03:43;27.90;27.30
2941;DHT22;1480;51.456;6.670;2022-08-07T16:06:11;27.80;27.80
2941;DHT22;1480;51.456;6.670;2022-08-07T16:08:40;27.80;27.90
2941;DHT22;1480;51.456;6.670;2022-08-07T16:11:22;27.90;28.40
2941;DHT22;1480;51.456;6.670;2022-08-07T16:14:00;27.90;27.30
2941;DHT22;1480;51.456;6.670;2022-08-07T16:22:36;27.70;28.30
2941;DHT22;1480;51.456;6.670;2022-08-07T16:25:28;27.70;27.40
2941;DHT22;1480;51.456;6.670;2022-08-07T16:28:10;27.70;27.90
2941;DHT22;1480;51.456;6.670;2022-08-07T16:30:49;27.60;27.70
2941;DHT22;1480;51.456;6.670;2022-08-07T16:33:23;27.60;28.40
2941;DHT22;1480;51.456;6.670;2022-08-07T16:36:14;27.70;27.40
2941;DHT22;1480;51.456;6.670;2022-08-07T16:38:53;27.70;27.60
2941;DHT22;1480;51.456;6.670;2022-08-07T16:41:34;27.60;28.50
2941;DHT22;1480;51.456;6.670;2022-08-07T16:44:23;27.70;28.40
2941;DHT22;1480;51.456;6.670;2022-08-07T16:50:33;27.50;27.60